sensor_id;sensor_type;location;lat;lon;timestamp;temperature;humidity
8979;DHT22;4524;51.364;5.448;2022-11-04T00:01:46;11.70;79.30
8979;DHT22;4524;51.364;5.448;2022-11-04T00:04:18;11.60;99.90
8979;DHT22;4524;51.364;5.448;2022-11-04T00:06:46;11.60;95.40
8979;DHT22;4524;51.364;5.448;2022-11-04T00:09:16;11.50;99.90
8979;DHT22;4524;51.364;5.448;2022-11-04T00:11:44;11.40;99.90
8979;DHT22;4524;51.364;5.448;2022-11-04T00:14:30;11.40;99.90
8979;DHT22;4524;51.364;5.448;2022-11-04T00:16:59;11.50;99.90
8979;DHT22;4524;51.364;5.448;2022-11-04T00:19:47;11.50;99.90
8979;DHT22;4524;51.364;5.448;2022-11-04T00:22:33;11.50;99.90
8979;DHT22;4524;51.364;5.448;2022-11-04T00:25:19;11.50;99.90
8979;DHT22;4524;51.364;5.448;2022-11-04T00:28:08;11.50;99.90
8979;DHT22;4524;51.364;5.448;2022-11-04T00:30:55;11.50;99.90
8979;DHT22;4524;51.364;5.448;2022-11-04T00:33:23;11.50;99.90
8979;DHT22;4524;51.364;5.448;2022-11-04T00:35:56;11.50;79.50
8979;DHT22;4524;51.364;5.448;2022-11-04T00:38:24;11.60;99.90
8979;DHT22;4524;51.364;5.448;2022-11-04T00:40:52;11.40;83.00
8979;DHT22;4524;51.364;5.448;2022-11-04T00:43:20;11.40;99.90
8979;DHT22;4524;51.364;5.448;2022-11-04T00:45:48;11.40;99.90
8979;DHT22;4524;51.364;5.448;2022-11-04T00:48:15;11.50;99.90
8979;DHT22;4524;51.364;5.448;2022-11-04T00:50:43;11.50;99.90
8979;DHT22;4524;51.364;5.448;2022-11-04T00:53:12;11.50;92.30
8979;DHT22;4524;51.364;5.448;2022-11-04T00:55:40;11.50;91.50
8979;DHT22;4524;51.364;5.448;2022-11-04T00:58:08;11.50;84.90
8979;DHT22;4524;51.364;5.448;2022-11-04T01:00:37;11.50;94.00
8979;DHT22;4524;51.364;5.448;2022-11-04T01:03:06;11.50;94.30
8979;DHT22;4524;51.364;5.448;2022-11-04T01:05:36;11.50;98.20
8979;DHT22;4524;51.364;5.448;2022-11-04T01:08:04;11.30;99.90
8979;DHT22;4524;51.364;5.448;2022-11-04T01:10:35;11.20;99.90
8979;DHT22;4524;51.364;5.448;2022-11-04T01:13:10;11.10;99.90
8979;DHT22;4524;51.364;5.448;2022-11-04T01:15:38;11.00;99.90
8979;DHT22;4524;51.364;5.448;2022-11-04T01:18:06;10.90;99.90
8979;DHT22;4524;51.364;5.448;2022-11-04T01:20:34;10.90;99.90
8979;DHT22;4524;51.364;5.448;2022-11-04T01:23:02;10.90;99.90
8979;DHT22;4524;51.364;5.448;2022-11-04T01:25:30;10.90;99.90
8979;DHT22;4524;51.364;5.448;2022-11-04T01:27:59;10.90;99.90
8979;DHT22;4524;51.364;5.448;2022-11-04T01:30:27;11.00;99.90
8979;DHT22;4524;51.364;5.448;2022-11-04T01:32:55;10.90;99.90
8979;DHT22;4524;51.364;5.448;2022-11-04T01:35:23;10.80;99.90
8979;DHT22;4524;51.364;5.448;2022-11-04T01:37:50;10.80;99.90
8979;DHT22;4524;51.364;5.448;2022-11-04T01:40:18;10.70;99.90
8979;DHT22;4524;51.364;5.448;2022-11-04T01:42:46;10.60;99.90
8979;DHT22;4524;51.364;5.448;2022-11-04T01:45:18;10.50;99.90
8979;DHT22;4524;51.364;5.448;2022-11-04T01:47:51;10.50;99.90
8979;DHT22;4524;51.364;5.448;2022-11-04T01:50:24;10.40;99.90
8979;DHT22;4524;51.364;5.448;2022-11-04T01:52:56;10.40;99.90
8979;DHT22;4524;51.364;5.448;2022-11-04T01:55:31;10.40;99.90
8979;DHT22;4524;51.364;5.448;2022-11-04T01:58:03;10.30;99.90
8979;DHT22;4524;51.364;5.448;2022-11-04T02:00:33;10.30;99.90
8979;DHT22;4524;51.364;5.448;2022-11-04T02:03:05;10.20;99.90
8979;DHT22;4524;51.364;5.448;2022-11-04T02:05:34;10.20;99.90
8979;DHT22;4524;51.364;5.448;2022-11-04T02:08:04;10.20;99.90
8979;DHT22;4524;51.364;5.448;2022-11-04T02:10:33;10.10;99.90
8979;DHT22;4524;51.364;5.448;2022-11-04T02:13:02;10.10;99.90
8979;DHT22;4524;51.364;5.448;2022-11-04T02:15:39;10.00;99.90
8979;DHT22;4524;51.364;5.448;2022-11-04T02:18:20;10.00;99.90
8979;DHT22;4524;51.364;5.448;2022-11-04T02:21:13;10.00;99.90
8979;DHT22;4524;51.364;5.448;2022-11-04T02:24:07;9.90;99.90
8979;DHT22;4524;51.364;5.448;2022-11-04T02:29:57;9.90;99.90
8979;DHT22;4524;51.364;5.448;2022-11-04T02:32:37;9.90;99.90
8979;DHT22;4524;51.364;5.448;2022-11-04T02:35:11;9.80;99.90
8979;DHT22;4524;51.364;5.448;2022-11-04T02:37:49;9.80;99.90
8979;DHT22;4524;51.364;5.448;2022-11-04T02:40:26;9.80;99.90
8979;DHT22;4524;51.364;5.448;2022-11-04T02:43:00;9.80;99.90
8979;DHT22;4524;51.364;5.448;2022-11-04T02:45:35;9.80;99.90
8979;DHT22;4524;51.364;5.448;2022-11-04T02:48:08;9.80;99.90
8979;DHT22;4524;51.364;5.448;2022-11-04T02:50:42;9.70;99.90
8979;DHT22;4524;51.364;5.448;2022-11-04T02:53:15;9.70;99.90
8979;DHT22;4524;51.364;5.448;2022-11-04T02:55:48;9.70;99.90
8979;DHT22;4524;51.364;5.448;2022-11-04T02:58:20;9.70;99.90
8979;DHT22;4524;51.364;5.448;2022-11-04T03:00:51;9.70;99.90
8979;DHT22;4524;51.364;5.448;2022-11-04T03:03:23;9.60;99.90
8979;DHT22;4524;51.364;5.448;2022-11-04T03:05:54;9.60;99.90
8979;DHT22;4524;51.364;5.448;2022-11-04T03:08:26;9.60;99.90
8979;DHT22;4524;51.364;5.448;2022-11-04T03:11:00;9.60;99.90
8979;DHT22;4524;51.364;5.448;2022-11-04T03:13:33;9.60;99.90
8979;DHT22;4524;51.364;5.448;2022-11-04T03:16:08;9.60;99.90
8979;DHT22;4524;51.364;5.448;2022-11-04T03:18:42;9.70;99.90
8979;DHT22;4524;51.364;5.448;2022-11-04T03:21:12;9.70;99.90
8979;DHT22;4524;51.364;5.448;2022-11-04T03:23:41;9.80;99.90
8979;DHT22;4524;51.364;5.448;2022-11-04T03:26:14;9.90;99.90
8979;DHT22;4524;51.364;5.448;2022-11-04T03:28:48;9.90;99.90
8979;DHT22;4524;51.364;5.448;2022-11-04T03:31:22;9.90;99.90
8979;DHT22;4524;51.364;5.448;2022-11-04T03:33:53;9.90;99.90
8979;DHT22;4524;51.364;5.448;2022-11-04T03:36:21;9.80;99.90
8979;DHT22;4524;51.364;5.448;2022-11-04T03:38:50;9.80;99.90
8979;DHT22;4524;51.364;5.448;2022-11-04T03:41:22;9.90;99.90
8979;DHT22;4524;51.364;5.448;2022-11-04T03:43:52;9.80;99.90
8979;DHT22;4524;51.364;5.448;2022-11-04T03:46:21;9.80;99.90
8979;DHT22;4524;51.364;5.448;2022-11-04T03:48:51;9.80;99.90
8979;DHT22;4524;51.364;5.448;2022-11-04T03:51:19;9.70;99.90
8979;DHT22;4524;51.364;5.448;2022-11-04T03:53:47;9.70;99.90
8979;DHT22;4524;51.364;5.448;2022-11-04T03:56:34;9.70;99.90
8979;DHT22;4524;51.364;5.448;2022-11-04T03:59:15;9.60;99.90
8979;DHT22;4524;51.364;5.448;2022-11-04T04:01:54;9.60;99.90
8979;DHT22;4524;51.364;5.448;2022-11-04T04:04:27;9.60;99.90
8979;DHT22;4524;51.364;5.448;2022-11-04T04:07:00;9.50;99.90
8979;DHT22;4524;51.364;5.448;2022-11-04T04:09:36;9.50;99.90
8979;DHT22;4524;51.364;5.448;2022-11-04T04:12:11;9.50;99.90
8979;DHT22;4524;51.364;5.448;2022-11-04T04:14:43;9.50;99.90
8979;DHT22;4524;51.364;5.448;2022-11-04T04:17:17;9.40;99.90
8979;DHT22;4524;51.364;5.448;2022-11-04T04:19:51;9.40;99.90
8979;DHT22;4524;51.364;5.448;2022-11-04T04:22:22;9.40;99.90
8979;DHT22;4524;51.364;5.448;2022-11-04T04:24:53;9.40;99.90
8979;DHT22;4524;51.364;5.448;2022-11-04T04:27:40;9.30;99.90
8979;DHT22;4524;51.364;5.448;2022-11-04T04:30:12;9.30;99.90
8979;DHT22;4524;51.364;5.448;2022-11-04T04:32:46;9.30;99.90
8979;DHT22;4524;51.364;5.448;2022-11-04T04:35:14;9.30;99.90
8979;DHT22;4524;51.364;5.448;2022-11-04T04:38:04;9.30;99.90
8979;DHT22;4524;51.364;5.448;2022-11-04T04:40:56;9.30;99.90
8979;DHT22;4524;51.364;5.448;2022-11-04T04:43:43;9.30;99.90
8979;DHT22;4524;51.364;5.448;2022-11-04T04:46:30;9.20;99.90
8979;DHT22;4524;51.364;5.448;2022-11-04T04:49:04;9.20;99.90
8979;DHT22;4524;51.364;5.448;2022-11-04T04:51:34;9.20;99.90
8979;DHT22;4524;51.364;5.448;2022-11-04T04:54:02;9.20;99.90
8979;DHT22;4524;51.364;5.448;2022-11-04T04:56:30;9.20;99.90
8979;DHT22;4524;51.364;5.448;2022-11-04T04:58:58;9.20;99.40
8979;DHT22;4524;51.364;5.448;2022-11-04T05:01:26;9.20;99.90
8979;DHT22;4524;51.364;5.448;2022-11-04T05:03:54;9.20;99.90
8979;DHT22;4524;51.364;5.448;2022-11-04T05:06:24;9.20;99.90
8979;DHT22;4524;51.364;5.448;2022-11-04T05:08:52;9.30;97.40
8979;DHT22;4524;51.364;5.448;2022-11-04T05:11:19;9.40;88.60
8979;DHT22;4524;51.364;5.448;2022-11-04T05:13:53;9.50;39.90
8979;DHT22;4524;51.364;5.448;2022-11-04T05:16:21;9.50;34.40
8979;DHT22;4524;51.364;5.448;2022-11-04T05:18:50;9.50;60.50
8979;DHT22;4524;51.364;5.448;2022-11-04T05:21:18;9.40;34.70
8979;DHT22;4524;51.364;5.448;2022-11-04T05:23:47;9.40;30.50
8979;DHT22;4524;51.364;5.448;2022-11-04T05:26:15;9.50;54.30
8979;DHT22;4524;51.364;5.448;2022-11-04T05:28:43;9.50;55.50
8979;DHT22;4524;51.364;5.448;2022-11-04T05:31:11;9.60;35.50
8979;DHT22;4524;51.364;5.448;2022-11-04T05:33:39;9.70;14.50
8979;DHT22;4524;51.364;5.448;2022-11-04T05:36:08;9.70;26.00
8979;DHT22;4524;51.364;5.448;2022-11-04T05:38:36;9.80;6.50
8979;DHT22;4524;51.364;5.448;2022-11-04T05:41:08;9.80;7.60
8979;DHT22;4524;51.364;5.448;2022-11-04T05:43:36;9.70;6.80
8979;DHT22;4524;51.364;5.448;2022-11-04T05:46:04;9.70;15.40
8979;DHT22;4524;51.364;5.448;2022-11-04T05:48:32;9.60;51.70
8979;DHT22;4524;51.364;5.448;2022-11-04T05:51:06;9.50;61.80
8979;DHT22;4524;51.364;5.448;2022-11-04T05:53:34;9.50;41.40
8979;DHT22;4524;51.364;5.448;2022-11-04T05:56:02;9.50;88.20
8979;DHT22;4524;51.364;5.448;2022-11-04T05:58:31;9.60;69.90
8979;DHT22;4524;51.364;5.448;2022-11-04T06:01:21;9.60;51.00
8979;DHT22;4524;51.364;5.448;2022-11-04T06:03:50;9.60;46.40
8979;DHT22;4524;51.364;5.448;2022-11-04T06:06:18;9.70;17.80
8979;DHT22;4524;51.364;5.448;2022-11-04T06:08:46;9.60;23.50
8979;DHT22;4524;51.364;5.448;2022-11-04T06:11:14;9.70;15.90
8979;DHT22;4524;51.364;5.448;2022-11-04T06:13:43;9.70;15.60
8979;DHT22;4524;51.364;5.448;2022-11-04T06:16:11;9.70;30.70
8979;DHT22;4524;51.364;5.448;2022-11-04T06:18:38;9.70;44.60
8979;DHT22;4524;51.364;5.448;2022-11-04T06:21:09;9.60;23.30
8979;DHT22;4524;51.364;5.448;2022-11-04T06:23:37;9.60;46.40
8979;DHT22;4524;51.364;5.448;2022-11-04T06:26:05;9.50;51.10
8979;DHT22;4524;51.364;5.448;2022-11-04T06:28:33;9.50;48.80
8979;DHT22;4524;51.364;5.448;2022-11-04T06:31:04;9.50;67.30
8979;DHT22;4524;51.364;5.448;2022-11-04T06:33:32;9.50;87.20
8979;DHT22;4524;51.364;5.448;2022-11-04T06:36:04;9.40;96.60
8979;DHT22;4524;51.364;5.448;2022-11-04T06:38:34;9.40;82.50
8979;DHT22;4524;51.364;5.448;2022-11-04T06:41:03;9.40;92.70
8979;DHT22;4524;51.364;5.448;2022-11-04T06:43:35;9.40;99.90
8979;DHT22;4524;51.364;5.448;2022-11-04T06:46:05;9.40;99.90
8979;DHT22;4524;51.364;5.448;2022-11-04T06:48:33;9.40;99.90
8979;DHT22;4524;51.364;5.448;2022-11-04T06:51:00;9.30;99.90
8979;DHT22;4524;51.364;5.448;2022-11-04T06:53:28;9.20;99.90
8979;DHT22;4524;51.364;5.448;2022-11-04T06:56:01;9.10;99.90
8979;DHT22;4524;51.364;5.448;2022-11-04T06:58:29;9.10;99.90
8979;DHT22;4524;51.364;5.448;2022-11-04T07:00:57;9.10;98.50
8979;DHT22;4524;51.364;5.448;2022-11-04T07:03:27;9.10;99.90
8979;DHT22;4524;51.364;5.448;2022-11-04T07:05:55;9.10;99.90
8979;DHT22;4524;51.364;5.448;2022-11-04T07:08:23;9.20;99.90
8979;DHT22;4524;51.364;5.448;2022-11-04T07:10:53;9.40;99.90
8979;DHT22;4524;51.364;5.448;2022-11-04T07:13:21;9.60;20.60
8979;DHT22;4524;51.364;5.448;2022-11-04T07:15:49;9.70;24.70
8979;DHT22;4524;51.364;5.448;2022-11-04T07:18:17;9.60;54.30
8979;DHT22;4524;51.364;5.448;2022-11-04T07:20:46;9.70;32.40
8979;DHT22;4524;51.364;5.448;2022-11-04T07:23:14;9.80;24.20
8979;DHT22;4524;51.364;5.448;2022-11-04T07:25:42;9.90;14.50
8979;DHT22;4524;51.364;5.448;2022-11-04T07:28:10;9.90;24.90
8979;DHT22;4524;51.364;5.448;2022-11-04T07:30:38;10.00;35.30
8979;DHT22;4524;51.364;5.448;2022-11-04T07:33:06;10.00;58.00
8979;DHT22;4524;51.364;5.448;2022-11-04T07:35:34;9.90;47.40
8979;DHT22;4524;51.364;5.448;2022-11-04T07:38:04;9.90;40.50
8979;DHT22;4524;51.364;5.448;2022-11-04T07:40:32;9.80;81.30
8979;DHT22;4524;51.364;5.448;2022-11-04T07:43:00;9.90;99.90
8979;DHT22;4524;51.364;5.448;2022-11-04T07:45:36;9.80;93.00
8979;DHT22;4524;51.364;5.448;2022-11-04T07:48:04;9.80;99.90
8979;DHT22;4524;51.364;5.448;2022-11-04T07:50:33;9.90;99.90
8979;DHT22;4524;51.364;5.448;2022-11-04T07:53:00;9.80;99.90
8979;DHT22;4524;51.364;5.448;2022-11-04T07:55:30;9.80;99.90
8979;DHT22;4524;51.364;5.448;2022-11-04T07:57:58;9.80;99.90
8979;DHT22;4524;51.364;5.448;2022-11-04T08:00:26;9.90;99.90
8979;DHT22;4524;51.364;5.448;2022-11-04T08:02:53;10.00;99.90
8979;DHT22;4524;51.364;5.448;2022-11-04T08:05:21;10.00;99.90
8979;DHT22;4524;51.364;5.448;2022-11-04T08:07:50;10.20;92.60
8979;DHT22;4524;51.364;5.448;2022-11-04T08:10:18;10.30;53.80
8979;DHT22;4524;51.364;5.448;2022-11-04T08:12:47;10.40;47.40
8979;DHT22;4524;51.364;5.448;2022-11-04T08:15:15;10.50;40.00
8979;DHT22;4524;51.364;5.448;2022-11-04T08:17:43;10.50;30.00
8979;DHT22;4524;51.364;5.448;2022-11-04T08:20:11;10.60;53.90
8979;DHT22;4524;51.364;5.448;2022-11-04T08:22:39;10.70;75.30
8979;DHT22;4524;51.364;5.448;2022-11-04T08:25:07;10.70;39.80
8979;DHT22;4524;51.364;5.448;2022-11-04T08:27:37;10.70;77.00
8979;DHT22;4524;51.364;5.448;2022-11-04T08:30:07;10.60;74.10
8979;DHT22;4524;51.364;5.448;2022-11-04T08:32:35;10.60;86.80
8979;DHT22;4524;51.364;5.448;2022-11-04T08:35:04;10.50;99.90
8979;DHT22;4524;51.364;5.448;2022-11-04T08:37:32;10.50;99.90
8979;DHT22;4524;51.364;5.448;2022-11-04T08:40:00;10.50;99.90
8979;DHT22;4524;51.364;5.448;2022-11-04T08:42:28;10.60;99.90
8979;DHT22;4524;51.364;5.448;2022-11-04T08:44:55;10.70;99.90
8979;DHT22;4524;51.364;5.448;2022-11-04T08:47:25;10.90;99.90
8979;DHT22;4524;51.364;5.448;2022-11-04T08:49:53;11.00;99.90
8979;DHT22;4524;51.364;5.448;2022-11-04T08:52:22;11.10;99.90
8979;DHT22;4524;51.364;5.448;2022-11-04T08:54:52;11.20;99.90
8979;DHT22;4524;51.364;5.448;2022-11-04T08:57:23;11.40;99.90
8979;DHT22;4524;51.364;5.448;2022-11-04T08:59:51;11.40;99.90
8979;DHT22;4524;51.364;5.448;2022-11-04T09:02:19;11.40;99.90
8979;DHT22;4524;51.364;5.448;2022-11-04T09:04:48;11.40;94.10
8979;DHT22;4524;51.364;5.448;2022-11-04T09:07:16;11.50;99.90
8979;DHT22;4524;51.364;5.448;2022-11-04T09:09:43;11.60;99.90
8979;DHT22;4524;51.364;5.448;2022-11-04T09:12:30;11.80;1.00
8979;DHT22;4524;51.364;5.448;2022-11-04T09:14:58;12.10;1.00
8979;DHT22;4524;51.364;5.448;2022-11-04T09:17:26;12.30;1.00
8979;DHT22;4524;51.364;5.448;2022-11-04T09:19:55;12.40;1.00
8979;DHT22;4524;51.364;5.448;2022-11-04T09:22:23;12.40;1.00
8979;DHT22;4524;51.364;5.448;2022-11-04T09:24:51;12.40;1.00
8979;DHT22;4524;51.364;5.448;2022-11-04T09:27:19;12.50;1.00
8979;DHT22;4524;51.364;5.448;2022-11-04T09:29:47;12.50;1.00
8979;DHT22;4524;51.364;5.448;2022-11-04T09:32:15;12.50;1.00
8979;DHT22;4524;51.364;5.448;2022-11-04T09:34:43;12.50;1.00
8979;DHT22;4524;51.364;5.448;2022-11-04T09:37:12;12.50;1.00
8979;DHT22;4524;51.364;5.448;2022-11-04T09:39:41;12.50;1.00
8979;DHT22;4524;51.364;5.448;2022-11-04T09:45:10;12.60;1.00
8979;DHT22;4524;51.364;5.448;2022-11-04T09:47:50;12.70;1.00
8979;DHT22;4524;51.364;5.448;2022-11-04T09:50:23;12.70;1.00
8979;DHT22;4524;51.364;5.448;2022-11-04T09:52:56;12.80;99.90
8979;DHT22;4524;51.364;5.448;2022-11-04T09:55:29;12.80;1.00
8979;DHT22;4524;51.364;5.448;2022-11-04T09:57:59;12.90;1.00
8979;DHT22;4524;51.364;5.448;2022-11-04T10:00:30;13.00;99.90
8979;DHT22;4524;51.364;5.448;2022-11-04T10:03:10;13.20;1.00
8979;DHT22;4524;51.364;5.448;2022-11-04T10:05:51;13.30;99.90
8979;DHT22;4524;51.364;5.448;2022-11-04T10:08:42;13.60;99.90
8979;DHT22;4524;51.364;5.448;2022-11-04T10:11:18;13.70;99.90
8979;DHT22;4524;51.364;5.448;2022-11-04T10:14:01;13.60;99.90
8979;DHT22;4524;51.364;5.448;2022-11-04T10:16:43;13.70;99.90
8979;DHT22;4524;51.364;5.448;2022-11-04T10:19:29;13.60;99.90
8979;DHT22;4524;51.364;5.448;2022-11-04T10:22:05;13.60;99.90
8979;DHT22;4524;51.364;5.448;2022-11-04T10:24:45;13.50;99.90
8979;DHT22;4524;51.364;5.448;2022-11-04T10:27:20;13.50;99.90
8979;DHT22;4524;51.364;5.448;2022-11-04T10:29:53;13.40;99.90
8979;DHT22;4524;51.364;5.448;2022-11-04T10:32:25;13.20;99.90
8979;DHT22;4524;51.364;5.448;2022-11-04T10:34:57;13.20;99.90
8979;DHT22;4524;51.364;5.448;2022-11-04T10:37:27;13.40;99.90
8979;DHT22;4524;51.364;5.448;2022-11-04T10:40:04;13.30;99.90
8979;DHT22;4524;51.364;5.448;2022-11-04T10:42:33;13.30;99.90
8979;DHT22;4524;51.364;5.448;2022-11-04T10:45:01;13.40;99.90
8979;DHT22;4524;51.364;5.448;2022-11-04T10:47:33;13.30;99.90
8979;DHT22;4524;51.364;5.448;2022-11-04T10:50:21;13.20;99.90
8979;DHT22;4524;51.364;5.448;2022-11-04T10:53:07;13.30;99.90
8979;DHT22;4524;51.364;5.448;2022-11-04T10:55:43;13.40;99.90
8979;DHT22;4524;51.364;5.448;2022-11-04T10:58:18;13.20;99.90
8979;DHT22;4524;51.364;5.448;2022-11-04T11:00:48;13.20;99.90
8979;DHT22;4524;51.364;5.448;2022-11-04T11:03:27;13.30;99.90
8979;DHT22;4524;51.364;5.448;2022-11-04T11:06:10;13.40;99.90
8979;DHT22;4524;51.364;5.448;2022-11-04T11:08:40;13.30;99.90
8979;DHT22;4524;51.364;5.448;2022-11-04T11:11:12;13.30;99.90
8979;DHT22;4524;51.364;5.448;2022-11-04T11:13:42;13.10;99.90
8979;DHT22;4524;51.364;5.448;2022-11-04T11:16:12;13.20;99.90
8979;DHT22;4524;51.364;5.448;2022-11-04T11:18:43;13.10;99.90
8979;DHT22;4524;51.364;5.448;2022-11-04T11:21:14;13.10;99.90
8979;DHT22;4524;51.364;5.448;2022-11-04T11:23:47;13.10;99.90
8979;DHT22;4524;51.364;5.448;2022-11-04T11:26:28;13.00;99.90
8979;DHT22;4524;51.364;5.448;2022-11-04T11:28:57;12.90;99.90
8979;DHT22;4524;51.364;5.448;2022-11-04T11:31:34;12.90;99.90
8979;DHT22;4524;51.364;5.448;2022-11-04T11:34:04;12.80;99.90
8979;DHT22;4524;51.364;5.448;2022-11-04T11:36:36;12.70;99.90
8979;DHT22;4524;51.364;5.448;2022-11-04T11:39:13;12.60;99.90
8979;DHT22;4524;51.364;5.448;2022-11-04T11:41:52;12.70;99.90
8979;DHT22;4524;51.364;5.448;2022-11-04T11:44:25;12.80;99.90
8979;DHT22;4524;51.364;5.448;2022-11-04T11:46:58;12.80;99.90
8979;DHT22;4524;51.364;5.448;2022-11-04T11:49:29;13.10;99.90
8979;DHT22;4524;51.364;5.448;2022-11-04T11:52:29;13.20;99.90
8979;DHT22;4524;51.364;5.448;2022-11-04T11:55:03;13.30;99.90
8979;DHT22;4524;51.364;5.448;2022-11-04T11:57:41;13.30;99.90
8979;DHT22;4524;51.364;5.448;2022-11-04T12:00:34;13.40;99.90
8979;DHT22;4524;51.364;5.448;2022-11-04T12:03:13;13.70;99.90
8979;DHT22;4524;51.364;5.448;2022-11-04T12:05:49;13.80;99.90
8979;DHT22;4524;51.364;5.448;2022-11-04T12:09:04;13.80;99.90
8979;DHT22;4524;51.364;5.448;2022-11-04T12:11:59;13.90;99.90
8979;DHT22;4524;51.364;5.448;2022-11-04T12:14:43;14.20;99.90
8979;DHT22;4524;51.364;5.448;2022-11-04T12:17:26;14.30;99.90
8979;DHT22;4524;51.364;5.448;2022-11-04T12:20:05;14.40;99.90
8979;DHT22;4524;51.364;5.448;2022-11-04T12:22:46;14.20;99.90
8979;DHT22;4524;51.364;5.448;2022-11-04T12:25:23;14.10;99.90
8979;DHT22;4524;51.364;5.448;2022-11-04T12:28:03;13.80;99.90
8979;DHT22;4524;51.364;5.448;2022-11-04T12:30:46;13.70;99.90
8979;DHT22;4524;51.364;5.448;2022-11-04T12:33:26;13.70;99.90
8979;DHT22;4524;51.364;5.448;2022-11-04T12:36:11;13.80;99.90
8979;DHT22;4524;51.364;5.448;2022-11-04T12:38:50;13.80;99.90
8979;DHT22;4524;51.364;5.448;2022-11-04T12:41:26;13.70;99.90
8979;DHT22;4524;51.364;5.448;2022-11-04T12:44:22;13.60;99.90
8979;DHT22;4524;51.364;5.448;2022-11-04T12:47:06;13.50;99.90
8979;DHT22;4524;51.364;5.448;2022-11-04T12:49:51;13.40;99.90
8979;DHT22;4524;51.364;5.448;2022-11-04T12:55:34;13.20;99.90
8979;DHT22;4524;51.364;5.448;2022-11-04T12:58:18;13.10;99.90
8979;DHT22;4524;51.364;5.448;2022-11-04T13:00:53;13.10;99.90
8979;DHT22;4524;51.364;5.448;2022-11-04T13:03:32;13.10;99.90
8979;DHT22;4524;51.364;5.448;2022-11-04T13:06:02;13.10;99.90
8979;DHT22;4524;51.364;5.448;2022-11-04T13:08:36;13.10;99.90
8979;DHT22;4524;51.364;5.448;2022-11-04T13:11:08;13.00;99.90
8979;DHT22;4524;51.364;5.448;2022-11-04T13:13:51;13.10;99.90
8979;DHT22;4524;51.364;5.448;2022-11-04T13:16:28;13.00;99.90
8979;DHT22;4524;51.364;5.448;2022-11-04T13:18:58;13.00;99.90
8979;DHT22;4524;51.364;5.448;2022-11-04T13:21:29;13.00;99.90
8979;DHT22;4524;51.364;5.448;2022-11-04T13:24:03;13.20;99.90
8979;DHT22;4524;51.364;5.448;2022-11-04T13:26:31;13.30;99.90
8979;DHT22;4524;51.364;5.448;2022-11-04T13:29:05;13.30;99.90
8979;DHT22;4524;51.364;5.448;2022-11-04T13:31:44;13.30;99.90
8979;DHT22;4524;51.364;5.448;2022-11-04T13:34:23;13.40;99.90
8979;DHT22;4524;51.364;5.448;2022-11-04T13:37:03;13.40;99.90
8979;DHT22;4524;51.364;5.448;2022-11-04T13:39:35;13.40;99.90
8979;DHT22;4524;51.364;5.448;2022-11-04T13:42:26;13.40;99.90
8979;DHT22;4524;51.364;5.448;2022-11-04T13:44:57;13.40;99.90
8979;DHT22;4524;51.364;5.448;2022-11-04T13:47:34;13.40;99.90
8979;DHT22;4524;51.364;5.448;2022-11-04T13:50:04;13.30;99.90
8979;DHT22;4524;51.364;5.448;2022-11-04T13:52:33;13.30;99.90
8979;DHT22;4524;51.364;5.448;2022-11-04T13:55:19;13.30;99.90
8979;DHT22;4524;51.364;5.448;2022-11-04T13:57:51;13.40;99.90
8979;DHT22;4524;51.364;5.448;2022-11-04T14:00:22;13.50;99.90
8979;DHT22;4524;51.364;5.448;2022-11-04T14:02:51;13.60;99.90
8979;DHT22;4524;51.364;5.448;2022-11-04T14:06:02;13.70;99.90
8979;DHT22;4524;51.364;5.448;2022-11-04T14:08:31;13.60;99.90
8979;DHT22;4524;51.364;5.448;2022-11-04T14:11:07;13.60;99.90
8979;DHT22;4524;51.364;5.448;2022-11-04T14:16:39;13.60;99.90
8979;DHT22;4524;51.364;5.448;2022-11-04T14:22:15;13.50;99.90
8979;DHT22;4524;51.364;5.448;2022-11-04T14:24:43;13.50;99.90
8979;DHT22;4524;51.364;5.448;2022-11-04T14:27:24;13.50;99.90
8979;DHT22;4524;51.364;5.448;2022-11-04T14:29:53;13.60;99.90
8979;DHT22;4524;51.364;5.448;2022-11-04T14:32:24;13.60;99.90
8979;DHT22;4524;51.364;5.448;2022-11-04T14:34:58;13.50;99.90
8979;DHT22;4524;51.364;5.448;2022-11-04T14:37:31;13.40;99.90
8979;DHT22;4524;51.364;5.448;2022-11-04T14:40:01;13.30;99.90
8979;DHT22;4524;51.364;5.448;2022-11-04T14:42:43;13.10;99.90
8979;DHT22;4524;51.364;5.448;2022-11-04T14:45:17;13.00;99.90
8979;DHT22;4524;51.364;5.448;2022-11-04T14:47:53;13.00;99.90
8979;DHT22;4524;51.364;5.448;2022-11-04T14:50:24;12.90;99.90
8979;DHT22;4524;51.364;5.448;2022-11-04T14:52:57;12.90;99.90
8979;DHT22;4524;51.364;5.448;2022-11-04T14:55:26;12.80;99.90
8979;DHT22;4524;51.364;5.448;2022-11-04T14:57:56;12.80;99.90
8979;DHT22;4524;51.364;5.448;2022-11-04T15:00:31;12.90;99.90
8979;DHT22;4524;51.364;5.448;2022-11-04T15:03:12;12.90;99.90
8979;DHT22;4524;51.364;5.448;2022-11-04T15:06:02;12.80;99.90
8979;DHT22;4524;51.364;5.448;2022-11-04T15:08:34;12.80;99.90
8979;DHT22;4524;51.364;5.448;2022-11-04T15:11:09;12.80;99.90
8979;DHT22;4524;51.364;5.448;2022-11-04T15:13:44;12.80;99.90
8979;DHT22;4524;51.364;5.448;2022-11-04T15:16:14;12.90;99.90
8979;DHT22;4524;51.364;5.448;2022-11-04T15:18:44;12.90;99.90
8979;DHT22;4524;51.364;5.448;2022-11-04T15:21:12;12.70;99.90
8979;DHT22;4524;51.364;5.448;2022-11-04T15:23:45;12.70;99.90
8979;DHT22;4524;51.364;5.448;2022-11-04T15:26:22;12.70;99.90
8979;DHT22;4524;51.364;5.448;2022-11-04T15:28:56;12.70;99.90
8979;DHT22;4524;51.364;5.448;2022-11-04T15:31:27;12.70;99.90
8979;DHT22;4524;51.364;5.448;2022-11-04T15:33:58;12.70;99.90
8979;DHT22;4524;51.364;5.448;2022-11-04T15:36:28;12.70;99.90
8979;DHT22;4524;51.364;5.448;2022-11-04T15:39:02;12.70;99.90
8979;DHT22;4524;51.364;5.448;2022-11-04T15:41:32;12.70;99.90
8979;DHT22;4524;51.364;5.448;2022-11-04T15:44:20;12.70;99.90
8979;DHT22;4524;51.364;5.448;2022-11-04T15:46:50;12.60;99.90
8979;DHT22;4524;51.364;5.448;2022-11-04T15:49:22;12.50;99.90
8979;DHT22;4524;51.364;5.448;2022-11-04T15:51:53;12.40;99.90
8979;DHT22;4524;51.364;5.448;2022-11-04T15:54:28;12.40;99.90
8979;DHT22;4524;51.364;5.448;2022-11-04T15:56:59;12.30;99.90
8979;DHT22;4524;51.364;5.448;2022-11-04T15:59:29;12.20;99.90
8979;DHT22;4524;51.364;5.448;2022-11-04T16:01:58;12.20;99.90
8979;DHT22;4524;51.364;5.448;2022-11-04T16:04:27;12.10;99.90
8979;DHT22;4524;51.364;5.448;2022-11-04T16:07:06;12.00;99.90
8979;DHT22;4524;51.364;5.448;2022-11-04T16:09:49;11.90;99.90
8979;DHT22;4524;51.364;5.448;2022-11-04T16:12:25;11.80;99.90
8979;DHT22;4524;51.364;5.448;2022-11-04T16:14:54;11.80;99.90
8979;DHT22;4524;51.364;5.448;2022-11-04T16:17:23;11.70;99.90
8979;DHT22;4524;51.364;5.448;2022-11-04T16:19:53;11.60;99.90
8979;DHT22;4524;51.364;5.448;2022-11-04T16:22:25;11.50;99.90
8979;DHT22;4524;51.364;5.448;2022-11-04T16:24:56;11.40;99.90
8979;DHT22;4524;51.364;5.448;2022-11-04T16:27:26;11.40;99.90
8979;DHT22;4524;51.364;5.448;2022-11-04T16:30:02;11.40;99.90
8979;DHT22;4524;51.364;5.448;2022-11-04T16:32:40;11.30;99.90
8979;DHT22;4524;51.364;5.448;2022-11-04T16:35:14;11.30;99.90
8979;DHT22;4524;51.364;5.448;2022-11-04T16:37:42;11.30;99.90
8979;DHT22;4524;51.364;5.448;2022-11-04T16:40:12;11.20;99.90
8979;DHT22;4524;51.364;5.448;2022-11-04T16:42:41;11.20;99.90
8979;DHT22;4524;51.364;5.448;2022-11-04T16:45:17;11.20;99.90
8979;DHT22;4524;51.364;5.448;2022-11-04T16:47:47;11.30;99.90
8979;DHT22;4524;51.364;5.448;2022-11-04T16:50:15;11.30;99.90
8979;DHT22;4524;51.364;5.448;2022-11-04T16:52:44;11.30;99.90
8979;DHT22;4524;51.364;5.448;2022-11-04T16:55:13;11.30;99.90
8979;DHT22;4524;51.364;5.448;2022-11-04T16:57:42;11.30;99.90
8979;DHT22;4524;51.364;5.448;2022-11-04T17:00:17;11.30;99.90